Leicester, NC (28748)

11:33 AM EDT on September 27, 2016 (GMT -0400)
APRSWXNET | | Change Station

Elev 2900 ft 35.70 °N, 82.83 °W | Updated 34 minutes ago

Scattered Clouds
Scattered Clouds
64.0 °F
Feels Like 64.0 °F
N
0.0
Wind Variable Wind from WSW
Gusts 0.0 mph

Today
High -- | Low -- °F
--% Chance of Precip.
Yesterday
High -- | Low -- °F
Precip. -- in
Pressure 30.05 in
Visibility 2.0 miles
Clouds Scattered Clouds 800 ft
Dew Point 63.0 °F
Humidity 98%
Rainfall in
Snow Depth Not available.
7:23 AM 7:19 PM
Waning Crescent, 11% visible
SPECI KAVL 271457Z 35003KT 2SM SCT008 21/17 A3005 RMK AO2 SFC VIS 10 T02110167
Pressure 30.05 in
Visibility 2.0 miles
Clouds Scattered Clouds 800 ft
Dew Point 63.0 °F
Humidity 98%
Rainfall in
Snow Depth Not available.
7:23 AM 7:19 PM
Waning Crescent, 11% visible
SPECI KAVL 271457Z 35003KT 2SM SCT008 21/17 A3005 RMK AO2 SFC VIS 10 T02110167

10-Day Weather Forecast

Almanac

Astronomy

Sep. 27, 2016 Rise Set
Actual Time
Civil Twilight
Nautical Twilight
Astronomical Twilight
Moon
Length of Visible Light
Length of Day
Tomorrow will be .
, % of the Moon is Illuminated

Today's Extremes

State Highs State Lows

Community

WunderPhotos

Upload Photos

1,942,110 photos uploaded!

WunderBlog® & News

Nearby

Air Quality

  Air Quality AQ Index Pollutant
Not available.

Snow Depth

Station Depth Elevation

Earthquake Activity

City Distance Mag. Time & Date
Minimum magnitude displayed is 2.5.

Coastal Water Temperatures

Place Temperature

Stations

Nearby Weather Stations

Station Location Temp. Windchill Dew Point Humidity Wind Precip. Elev Updated Type
                   

Watches & Warnings

There are currently no watches in effect.